createdAt,value
2022-12-01T00:01:11.075Z,16.97
2022-12-01T00:03:37.756Z,16.57
2022-12-01T00:06:22.876Z,16.77
2022-12-01T00:09:09.568Z,17.00
2022-12-01T00:11:37.509Z,17.07
2022-12-01T00:14:04.810Z,17.20
2022-12-01T00:16:31.313Z,17.10
2022-12-01T00:18:58.149Z,16.80
2022-12-01T00:21:25.325Z,16.97
2022-12-01T00:23:54.873Z,16.53
2022-12-01T00:26:22.034Z,17.47
2022-12-01T00:28:53.248Z,16.03
2022-12-01T00:31:19.789Z,18.20
2022-12-01T00:33:46.283Z,16.27
2022-12-01T00:36:12.485Z,16.70
2022-12-01T00:38:38.922Z,17.27
2022-12-01T00:41:05.286Z,17.07
2022-12-01T00:43:31.922Z,17.53
2022-12-01T00:45:58.278Z,17.40
2022-12-01T00:48:25.025Z,16.17
2022-12-01T00:50:52.760Z,18.13
2022-12-01T00:53:19.212Z,16.37
2022-12-01T00:55:45.322Z,16.73
2022-12-01T00:58:12.229Z,16.27
2022-12-01T01:00:38.549Z,15.43
2022-12-01T01:03:06.879Z,16.67
2022-12-01T01:05:41.100Z,16.33
2022-12-01T01:08:14.298Z,16.47
2022-12-01T01:10:42.553Z,16.30
2022-12-01T01:13:10.722Z,15.97
2022-12-01T01:15:37.703Z,17.77
2022-12-01T01:18:05.586Z,16.87
2022-12-01T01:20:32.690Z,16.50
2022-12-01T01:22:59.022Z,16.73
2022-12-01T01:25:25.110Z,17.10
2022-12-01T01:27:51.473Z,16.70
2022-12-01T01:30:19.710Z,16.43
2022-12-01T01:32:46.269Z,16.63
2022-12-01T01:35:12.345Z,16.87
2022-12-01T01:37:39.227Z,18.40
2022-12-01T01:40:06.267Z,17.40
2022-12-01T01:42:32.786Z,16.33
2022-12-01T01:44:58.866Z,16.37
2022-12-01T01:47:38.520Z,15.47
2022-12-01T01:50:09.352Z,16.53
2022-12-01T01:52:44.616Z,17.27
2022-12-01T01:55:12.117Z,15.97
2022-12-01T01:57:39.477Z,17.23
2022-12-01T02:00:13.181Z,16.83
2022-12-01T02:02:44.402Z,17.97
2022-12-01T02:05:20.219Z,17.80
2022-12-01T02:07:47.930Z,17.60
2022-12-01T02:10:21.553Z,16.07
2022-12-01T02:13:15.952Z,17.97
2022-12-01T02:16:06.094Z,17.60
2022-12-01T02:18:51.504Z,17.13
2022-12-01T02:21:39.201Z,17.70
2022-12-01T02:24:26.843Z,17.87
2022-12-01T02:27:31.487Z,16.67
2022-12-01T02:30:03.911Z,16.53
2022-12-01T02:32:53.018Z,16.47
2022-12-01T02:35:36.687Z,17.27
2022-12-01T02:38:27.826Z,17.20
2022-12-01T02:41:15.908Z,15.87
2022-12-01T02:44:04.532Z,16.80
2022-12-01T02:46:35.639Z,15.80
2022-12-01T02:49:07.441Z,17.67
2022-12-01T02:51:37.381Z,17.23
2022-12-01T02:54:05.231Z,16.13
2022-12-01T02:56:31.798Z,16.80
2022-12-01T02:58:57.915Z,17.13
2022-12-01T03:01:41.655Z,16.87
2022-12-01T03:04:16.582Z,22.80
2022-12-01T03:06:59.385Z,23.03
2022-12-01T03:09:33.358Z,17.67
2022-12-01T03:12:14.941Z,17.97
2022-12-01T03:14:44.414Z,18.00
2022-12-01T03:17:18.987Z,17.77
2022-12-01T03:19:52.825Z,17.77
2022-12-01T03:22:31.272Z,18.10
2022-12-01T03:25:00.556Z,18.57
2022-12-01T03:27:32.833Z,17.03
2022-12-01T03:30:01.318Z,16.97
2022-12-01T03:32:37.921Z,16.63
2022-12-01T03:35:08.326Z,16.20
2022-12-01T03:37:40.810Z,16.03
2022-12-01T03:40:11.421Z,17.27
2022-12-01T03:42:44.729Z,16.93
2022-12-01T03:45:35.850Z,16.53
2022-12-01T03:48:02.671Z,17.10
2022-12-01T03:50:48.796Z,16.93
2022-12-01T03:53:24.108Z,17.60
2022-12-01T03:55:55.787Z,17.43
2022-12-01T03:58:35.020Z,18.10
2022-12-01T04:01:03.085Z,18.43
2022-12-01T04:03:29.712Z,17.53
2022-12-01T04:05:57.347Z,17.63
2022-12-01T04:08:24.507Z,17.87
2022-12-01T04:10:50.955Z,17.73
2022-12-01T04:13:23.715Z,19.37
2022-12-01T04:15:54.393Z,18.83
2022-12-01T04:18:21.292Z,18.30
2022-12-01T04:20:49.094Z,18.73
2022-12-01T04:23:35.520Z,18.50
2022-12-01T04:26:04.224Z,18.33
2022-12-01T04:28:31.001Z,18.00
2022-12-01T04:30:57.141Z,18.10
2022-12-01T04:33:23.550Z,18.43
2022-12-01T04:35:57.997Z,18.73
2022-12-01T04:38:30.071Z,18.10
2022-12-01T04:40:57.109Z,18.40
2022-12-01T04:43:23.474Z,18.63
2022-12-01T04:45:49.796Z,19.60
2022-12-01T04:48:16.293Z,19.20
2022-12-01T04:50:42.602Z,99.30
2022-12-01T04:53:09.021Z,28.57
2022-12-01T04:55:38.615Z,65.13
2022-12-01T04:58:05.637Z,27.70
2022-12-01T05:00:32.764Z,21.87
2022-12-01T05:03:00.029Z,24.03
2022-12-01T05:05:26.388Z,21.60
2022-12-01T05:07:52.982Z,19.93
2022-12-01T05:10:19.122Z,18.97
2022-12-01T05:12:45.596Z,19.70
2022-12-01T05:15:12.467Z,19.90
2022-12-01T05:17:39.202Z,20.53
2022-12-01T05:20:25.599Z,18.17
2022-12-01T05:23:06.466Z,18.93
2022-12-01T05:25:33.340Z,19.27
2022-12-01T05:28:00.099Z,20.67
2022-12-01T05:30:28.683Z,19.47
2022-12-01T05:32:55.878Z,17.00
2022-12-01T05:35:22.023Z,17.30
2022-12-01T05:37:48.365Z,18.37
2022-12-01T05:40:14.541Z,22.93
2022-12-01T05:42:40.949Z,20.57
2022-12-01T05:45:07.459Z,20.17
2022-12-01T05:47:33.837Z,19.03
2022-12-01T05:50:05.246Z,19.50
2022-12-01T05:52:34.292Z,17.37
2022-12-01T05:55:01.385Z,18.33
2022-12-01T05:57:27.912Z,19.00
2022-12-01T05:59:54.190Z,19.37
2022-12-01T06:02:21.100Z,17.37
2022-12-01T06:04:47.424Z,17.90
2022-12-01T06:07:13.812Z,18.30
2022-12-01T06:09:39.960Z,17.80
2022-12-01T06:12:06.487Z,17.07
2022-12-01T06:14:32.584Z,17.17
2022-12-01T06:16:59.096Z,17.90
2022-12-01T06:19:25.263Z,17.17
2022-12-01T06:21:51.765Z,15.50
2022-12-01T06:24:17.964Z,15.40
2022-12-01T06:26:44.354Z,16.20
2022-12-01T06:29:10.545Z,16.17
2022-12-01T06:31:37.057Z,16.00
2022-12-01T06:34:03.282Z,16.33
2022-12-01T06:36:29.736Z,16.93
2022-12-01T06:38:55.811Z,15.47
2022-12-01T06:41:22.251Z,16.60
2022-12-01T06:43:48.475Z,15.90
2022-12-01T06:46:15.076Z,15.57
2022-12-01T06:48:41.336Z,15.87
2022-12-01T06:51:09.163Z,15.07
2022-12-01T06:53:37.052Z,14.57
2022-12-01T06:56:04.872Z,16.10
2022-12-01T06:58:32.028Z,15.20
2022-12-01T07:00:59.580Z,15.70
2022-12-01T07:03:26.227Z,15.27
2022-12-01T07:05:59.679Z,15.03
2022-12-01T07:08:27.739Z,15.40
2022-12-01T07:11:05.365Z,14.67
2022-12-01T07:13:33.745Z,15.20
2022-12-01T07:16:05.156Z,15.53
2022-12-01T07:18:32.457Z,14.47
2022-12-01T07:21:00.386Z,14.90
2022-12-01T07:23:26.557Z,14.97
2022-12-01T07:26:10.069Z,15.03
2022-12-01T07:28:36.103Z,16.50
2022-12-01T07:31:06.912Z,13.93
2022-12-01T07:33:33.450Z,14.97
2022-12-01T07:36:00.827Z,14.93
2022-12-01T07:38:29.040Z,15.17
2022-12-01T07:41:01.586Z,15.77
2022-12-01T07:43:29.359Z,15.83
2022-12-01T07:45:55.874Z,14.20
2022-12-01T07:48:22.047Z,16.20
2022-12-01T07:50:48.466Z,14.50
2022-12-01T07:53:14.726Z,19.00
2022-12-01T07:55:47.376Z,20.33
2022-12-01T07:58:13.488Z,26.23
2022-12-01T08:00:39.830Z,30.27
2022-12-01T08:03:06.033Z,15.37
2022-12-01T08:05:32.606Z,15.47
2022-12-01T08:07:59.089Z,15.13
2022-12-01T08:10:25.833Z,15.30
2022-12-01T08:12:52.097Z,15.57
2022-12-01T08:15:18.556Z,14.70
2022-12-01T08:17:44.734Z,15.53
2022-12-01T08:20:11.793Z,15.90
2022-12-01T08:22:38.262Z,15.27
2022-12-01T08:25:06.203Z,14.47
2022-12-01T08:27:34.501Z,14.20
2022-12-01T08:30:01.733Z,14.13
2022-12-01T08:32:29.690Z,14.67
2022-12-01T08:34:56.374Z,15.33
2022-12-01T08:37:22.732Z,15.60
2022-12-01T08:39:49.791Z,14.97
2022-12-01T08:42:16.472Z,17.40
2022-12-01T08:44:43.041Z,15.37
2022-12-01T08:47:12.036Z,14.50
2022-12-01T08:49:41.098Z,14.73
2022-12-01T08:52:07.507Z,14.90
2022-12-01T08:54:34.151Z,16.53
2022-12-01T08:57:00.380Z,16.37
2022-12-01T08:59:27.111Z,22.93
2022-12-01T09:01:53.478Z,20.80
2022-12-01T09:04:24.038Z,16.83
2022-12-01T09:06:51.938Z,15.63
2022-12-01T09:09:21.764Z,14.83
2022-12-01T09:11:48.331Z,16.30
2022-12-01T09:14:17.281Z,15.53
2022-12-01T09:16:45.640Z,15.07
2022-12-01T09:19:13.544Z,15.93
2022-12-01T09:21:42.134Z,14.97
2022-12-01T09:24:11.354Z,17.87
2022-12-01T09:26:37.531Z,16.63
2022-12-01T09:29:06.808Z,15.17
2022-12-01T09:31:33.646Z,15.27
2022-12-01T09:34:03.378Z,14.80
2022-12-01T09:36:31.208Z,14.67
2022-12-01T09:38:58.170Z,15.23
2022-12-01T09:41:37.204Z,14.17
2022-12-01T09:44:19.923Z,16.10
2022-12-01T09:46:57.136Z,14.83
2022-12-01T09:49:35.242Z,15.30
2022-12-01T09:52:01.404Z,16.63
2022-12-01T09:54:28.571Z,15.47
2022-12-01T09:56:56.393Z,18.03
2022-12-01T09:59:26.341Z,15.27
2022-12-01T10:02:00.388Z,17.53
2022-12-01T10:04:34.961Z,15.77
2022-12-01T10:07:19.503Z,14.37
2022-12-01T10:09:58.667Z,17.43
2022-12-01T10:12:30.372Z,18.30
2022-12-01T10:15:05.871Z,17.27
2022-12-01T10:17:56.461Z,15.93
2022-12-01T10:20:48.984Z,17.57
2022-12-01T10:23:34.251Z,26.13
2022-12-01T10:26:13.863Z,19.83
2022-12-01T10:28:42.959Z,16.20
2022-12-01T10:31:19.098Z,14.87
2022-12-01T10:33:58.433Z,17.07
2022-12-01T10:36:27.618Z,16.07
2022-12-01T10:38:54.131Z,17.73
2022-12-01T10:41:23.757Z,19.43
2022-12-01T10:43:51.886Z,17.83
2022-12-01T10:46:24.086Z,16.77
2022-12-01T10:48:55.769Z,17.37
2022-12-01T10:51:24.004Z,18.27
2022-12-01T10:53:57.572Z,18.33
2022-12-01T10:56:24.290Z,17.73
2022-12-01T10:58:56.917Z,17.30
2022-12-01T11:01:31.329Z,16.73
2022-12-01T11:04:05.295Z,16.20
2022-12-01T11:06:32.445Z,17.67
2022-12-01T11:09:06.118Z,17.47
2022-12-01T11:11:32.491Z,16.33
2022-12-01T11:14:01.995Z,16.67
2022-12-01T11:16:54.598Z,16.80
2022-12-01T11:19:26.995Z,17.20
2022-12-01T11:21:57.333Z,18.27
2022-12-01T11:24:42.066Z,19.10
2022-12-01T11:27:16.552Z,17.27
2022-12-01T11:29:43.186Z,17.77
2022-12-01T11:32:30.812Z,18.53
2022-12-01T11:35:12.642Z,15.93
2022-12-01T11:38:13.113Z,16.23
2022-12-01T11:40:50.732Z,16.50
2022-12-01T11:43:35.717Z,16.97
2022-12-01T11:46:05.018Z,15.63
2022-12-01T11:48:36.288Z,16.87
2022-12-01T11:51:04.494Z,17.57
2022-12-01T11:53:38.576Z,17.53
2022-12-01T11:56:24.120Z,16.80
2022-12-01T11:59:03.656Z,16.60
2022-12-01T12:01:38.991Z,17.37
2022-12-01T12:04:26.680Z,17.83
2022-12-01T12:07:16.170Z,17.60
2022-12-01T12:10:01.343Z,16.53
2022-12-01T12:12:27.428Z,17.13
2022-12-01T12:15:31.022Z,16.97
2022-12-01T12:18:13.998Z,16.37
2022-12-01T12:20:40.619Z,16.20
2022-12-01T12:23:40.605Z,16.03
2022-12-01T12:26:51.868Z,17.07
2022-12-01T12:29:52.154Z,16.20
2022-12-01T12:32:34.079Z,16.07
2022-12-01T12:35:00.223Z,16.37
2022-12-01T12:37:51.417Z,16.50
2022-12-01T12:40:35.798Z,16.03
2022-12-01T12:43:09.117Z,16.37
2022-12-01T12:46:03.068Z,15.37
2022-12-01T12:49:03.905Z,16.70
2022-12-01T12:51:37.545Z,15.97
2022-12-01T12:54:29.242Z,16.77
2022-12-01T12:57:02.560Z,17.87
2022-12-01T12:59:38.731Z,17.63
2022-12-01T13:02:22.361Z,16.60
2022-12-01T13:04:52.182Z,16.20
2022-12-01T13:07:44.274Z,17.17
2022-12-01T13:10:29.440Z,17.77
2022-12-01T13:13:36.992Z,17.80
2022-12-01T13:16:09.926Z,16.43
2022-12-01T13:18:49.045Z,16.30
2022-12-01T13:21:18.642Z,16.13
2022-12-01T13:23:48.964Z,16.23
2022-12-01T13:26:19.350Z,16.33
2022-12-01T13:28:50.672Z,16.40
2022-12-01T13:31:19.187Z,16.90
2022-12-01T13:34:04.112Z,17.10
2022-12-01T13:36:48.395Z,16.83
2022-12-01T13:39:36.576Z,15.73
2022-12-01T13:42:07.623Z,16.47
2022-12-01T13:44:36.775Z,16.93
2022-12-01T13:47:09.281Z,16.67
2022-12-01T13:49:39.929Z,16.33
2022-12-01T13:52:21.861Z,16.30
2022-12-01T13:55:09.467Z,16.43
2022-12-01T13:57:44.172Z,16.17
2022-12-01T14:00:23.377Z,16.23
2022-12-01T14:03:32.703Z,16.17
2022-12-01T14:06:20.281Z,15.70
2022-12-01T14:08:52.429Z,16.30
2022-12-01T14:11:39.165Z,16.47
2022-12-01T14:14:08.771Z,15.20
2022-12-01T14:16:47.471Z,15.20
2022-12-01T14:19:43.145Z,16.37
2022-12-01T14:22:38.511Z,16.63
2022-12-01T14:25:20.121Z,15.37
2022-12-01T14:27:52.614Z,16.93
2022-12-01T14:30:41.507Z,15.73
2022-12-01T14:33:39.038Z,15.33
2022-12-01T14:36:24.053Z,15.83
2022-12-01T14:38:57.823Z,16.17
2022-12-01T14:41:27.499Z,16.60
2022-12-01T14:44:04.060Z,16.73
2022-12-01T14:46:55.789Z,16.90
2022-12-01T14:49:31.587Z,17.27
2022-12-01T14:52:06.709Z,15.47
2022-12-01T14:54:42.777Z,15.60
2022-12-01T14:57:16.549Z,16.00
2022-12-01T14:59:44.122Z,13.00
2022-12-01T15:02:13.029Z,12.97
2022-12-01T15:05:12.108Z,11.77
2022-12-01T15:07:47.058Z,11.80
2022-12-01T15:10:22.479Z,14.37
2022-12-01T15:12:50.567Z,16.23
2022-12-01T15:15:24.504Z,13.67
2022-12-01T15:17:54.776Z,15.23
2022-12-01T15:20:38.584Z,14.00
2022-12-01T15:23:11.835Z,14.67
2022-12-01T15:25:42.247Z,14.87
2022-12-01T15:28:18.088Z,15.10
2022-12-01T15:30:54.617Z,20.17
2022-12-01T15:33:35.384Z,20.83
2022-12-01T15:36:04.199Z,15.30
2022-12-01T15:38:38.346Z,15.90
2022-12-01T15:41:28.455Z,15.60
2022-12-01T15:43:56.774Z,16.00
2022-12-01T15:46:31.468Z,14.37
2022-12-01T15:49:28.937Z,13.43
2022-12-01T15:52:08.622Z,12.80
2022-12-01T15:54:37.058Z,13.70
2022-12-01T15:57:06.295Z,11.00
2022-12-01T15:59:38.588Z,17.63
2022-12-01T16:02:27.056Z,12.43
2022-12-01T16:05:08.737Z,10.83
2022-12-01T16:08:10.940Z,11.17
2022-12-01T16:10:29.822Z,11.00
2022-12-01T16:13:33.546Z,11.57
2022-12-01T16:16:00.388Z,10.50
2022-12-01T16:18:33.718Z,10.33
2022-12-01T16:21:04.528Z,9.80
2022-12-01T16:23:32.240Z,11.40
2022-12-01T16:26:01.917Z,9.20
2022-12-01T16:28:36.660Z,9.10
2022-12-01T16:31:05.613Z,10.13
2022-12-01T16:33:36.880Z,9.83
2022-12-01T16:36:03.723Z,9.20
2022-12-01T16:38:30.672Z,9.60
2022-12-01T16:41:14.210Z,10.67
2022-12-01T16:43:50.212Z,9.30
2022-12-01T16:46:30.916Z,8.90
2022-12-01T16:48:58.458Z,10.80
2022-12-01T16:51:35.485Z,10.60
2022-12-01T16:54:09.568Z,8.03
2022-12-01T16:56:36.066Z,7.30
2022-12-01T16:59:02.383Z,6.33
2022-12-01T17:01:29.136Z,6.27
2022-12-01T17:03:56.063Z,6.27
2022-12-01T17:06:22.692Z,5.30
2022-12-01T17:08:49.238Z,5.37
2022-12-01T17:11:15.689Z,4.73
2022-12-01T17:13:41.977Z,4.87
2022-12-01T17:16:13.837Z,4.60
2022-12-01T17:18:43.197Z,4.80
2022-12-01T17:21:10.916Z,5.20
2022-12-01T17:23:38.210Z,5.80
2022-12-01T17:26:10.749Z,4.90
2022-12-01T17:28:38.159Z,4.77
2022-12-01T17:31:06.087Z,5.20
2022-12-01T17:33:33.243Z,5.47
2022-12-01T17:36:10.011Z,5.77
2022-12-01T17:38:38.594Z,33.10
2022-12-01T17:41:08.309Z,7.20
2022-12-01T17:43:36.002Z,6.03
2022-12-01T17:46:04.973Z,7.43
2022-12-01T17:48:49.823Z,7.03
2022-12-01T17:51:19.474Z,5.13
2022-12-01T17:53:47.313Z,5.77
2022-12-01T17:56:15.603Z,11.07
2022-12-01T17:58:42.531Z,8.30
2022-12-01T18:01:18.330Z,5.83
2022-12-01T18:03:47.804Z,5.47
2022-12-01T18:06:15.852Z,6.50
2022-12-01T18:08:42.835Z,6.80
2022-12-01T18:11:13.777Z,6.10
2022-12-01T18:13:43.386Z,13.13
2022-12-01T18:16:22.147Z,12.17
2022-12-01T18:18:49.485Z,9.87
2022-12-01T18:21:18.087Z,9.10
2022-12-01T18:23:59.335Z,7.27
2022-12-01T18:26:27.422Z,11.10
2022-12-01T18:28:55.824Z,10.37
2022-12-01T18:31:26.668Z,8.10
2022-12-01T18:33:53.309Z,8.77
2022-12-01T18:36:22.859Z,8.70
2022-12-01T18:38:51.103Z,8.47
2022-12-01T18:41:19.435Z,8.47
2022-12-01T18:43:46.496Z,8.53
2022-12-01T18:46:15.925Z,9.97
2022-12-01T18:48:47.600Z,10.20
2022-12-01T18:51:14.996Z,11.17
2022-12-01T18:53:42.006Z,14.60
2022-12-01T18:56:11.714Z,9.80
2022-12-01T18:58:39.516Z,8.87
2022-12-01T19:01:23.819Z,8.13
2022-12-01T19:03:50.556Z,8.47
2022-12-01T19:06:17.670Z,8.87
2022-12-01T19:08:46.562Z,11.27
2022-12-01T19:11:13.713Z,8.67
2022-12-01T19:13:40.302Z,7.93
2022-12-01T19:16:09.844Z,8.53
2022-12-01T19:18:37.491Z,9.37
2022-12-01T19:21:06.133Z,9.23
2022-12-01T19:23:33.615Z,8.57
2022-12-01T19:26:06.279Z,8.13
2022-12-01T19:28:35.084Z,8.27
2022-12-01T19:31:10.489Z,8.30
2022-12-01T19:33:37.264Z,8.10
2022-12-01T19:36:09.238Z,8.80
2022-12-01T19:38:35.455Z,7.70
2022-12-01T19:41:02.855Z,7.90
2022-12-01T19:43:29.267Z,8.27
2022-12-01T19:45:55.893Z,7.50
2022-12-01T19:48:22.416Z,7.60
2022-12-01T19:50:49.615Z,7.27
2022-12-01T19:53:15.826Z,7.17
2022-12-01T19:55:42.379Z,7.77
2022-12-01T19:58:08.566Z,8.20
2022-12-01T20:00:35.578Z,7.47
2022-12-01T20:03:01.888Z,7.63
2022-12-01T20:05:28.732Z,7.23
2022-12-01T20:07:55.058Z,7.77
2022-12-01T20:10:21.778Z,7.17
2022-12-01T20:12:49.339Z,7.50
2022-12-01T20:15:16.150Z,7.47
2022-12-01T20:17:43.035Z,7.60
2022-12-01T20:20:10.928Z,7.67
2022-12-01T20:22:38.060Z,7.47
2022-12-01T20:25:06.017Z,7.37
2022-12-01T20:27:32.365Z,6.03
2022-12-01T20:29:58.910Z,6.43
2022-12-01T20:32:25.245Z,6.27
2022-12-01T20:34:52.097Z,6.30
2022-12-01T20:37:18.893Z,5.63
2022-12-01T20:39:46.752Z,5.67
2022-12-01T20:42:12.984Z,6.30
2022-12-01T20:44:39.803Z,6.33
2022-12-01T20:47:06.099Z,6.07
2022-12-01T20:49:33.126Z,6.07
2022-12-01T20:51:59.335Z,6.53
2022-12-01T20:54:28.816Z,7.13
2022-12-01T20:56:56.132Z,6.10
2022-12-01T20:59:22.794Z,6.90
2022-12-01T21:01:49.214Z,6.80
2022-12-01T21:04:16.162Z,6.80
2022-12-01T21:06:42.554Z,6.23
2022-12-01T21:09:12.452Z,6.97
2022-12-01T21:12:06.320Z,6.20
2022-12-01T21:14:53.749Z,6.73
2022-12-01T21:17:43.622Z,6.73
2022-12-01T21:20:21.282Z,6.80
2022-12-01T21:22:49.333Z,6.20
2022-12-01T21:25:22.145Z,6.23
2022-12-01T21:27:49.032Z,5.93
2022-12-01T21:30:25.663Z,5.70
2022-12-01T21:32:53.221Z,6.00
2022-12-01T21:35:23.100Z,5.93
2022-12-01T21:37:53.776Z,6.90
2022-12-01T21:40:23.557Z,6.13
2022-12-01T21:42:50.850Z,6.10
2022-12-01T21:45:31.555Z,6.77
2022-12-01T21:48:08.162Z,5.87
2022-12-01T21:50:35.015Z,6.10
2022-12-01T21:53:01.368Z,6.17
2022-12-01T21:55:33.010Z,5.90
2022-12-01T21:57:59.361Z,5.63
2022-12-01T22:00:32.686Z,5.53
2022-12-01T22:03:07.875Z,5.90
2022-12-01T22:06:07.109Z,5.60
2022-12-01T22:08:39.382Z,6.20
2022-12-01T22:11:28.335Z,5.93
2022-12-01T22:14:00.807Z,6.27
2022-12-01T22:16:32.933Z,6.40
2022-12-01T22:19:01.844Z,5.87
2022-12-01T22:21:38.722Z,6.00
2022-12-01T22:24:07.677Z,6.50
2022-12-01T22:26:40.653Z,5.50
2022-12-01T22:29:25.643Z,6.33
2022-12-01T22:32:19.066Z,6.03
2022-12-01T22:34:50.283Z,6.30
2022-12-01T22:37:28.000Z,5.90
2022-12-01T22:39:55.903Z,6.17
2022-12-01T22:42:33.215Z,6.37
2022-12-01T22:45:18.010Z,5.63
2022-12-01T22:47:44.652Z,5.73
2022-12-01T22:50:40.042Z,5.87
2022-12-01T22:53:15.554Z,5.47
2022-12-01T22:55:42.020Z,5.93
2022-12-01T22:58:21.730Z,5.80
2022-12-01T23:00:47.817Z,6.03
2022-12-01T23:03:15.536Z,6.07
2022-12-01T23:05:41.908Z,7.20
2022-12-01T23:08:12.497Z,6.30
2022-12-01T23:10:40.133Z,7.67
2022-12-01T23:13:23.851Z,7.47
2022-12-01T23:15:52.826Z,7.50
2022-12-01T23:18:19.241Z,8.97
2022-12-01T23:20:50.768Z,8.87
2022-12-01T23:23:19.574Z,8.37
2022-12-01T23:25:48.550Z,8.43
2022-12-01T23:28:15.482Z,9.17
2022-12-01T23:30:43.590Z,9.17
2022-12-01T23:33:18.386Z,10.00
2022-12-01T23:35:57.059Z,9.97
2022-12-01T23:38:28.830Z,10.57
2022-12-01T23:40:58.686Z,9.57
2022-12-01T23:43:29.152Z,10.30
2022-12-01T23:46:19.816Z,10.03
2022-12-01T23:48:46.134Z,10.13
2022-12-01T23:51:17.772Z,11.00
2022-12-01T23:53:45.335Z,10.87
2022-12-01T23:56:16.251Z,11.30
2022-12-01T23:58:43.449Z,11.57
